sensor_id;sensor_type;location;lat;lon;timestamp;temperature;humidity
54796;DHT22;40693;43.884;20.340;2022-10-12T00:00:53;435.90;2355.20
54796;DHT22;40693;43.884;20.340;2022-10-12T00:03:19;435.90;2355.20
54796;DHT22;40693;43.884;20.340;2022-10-12T00:05:45;435.90;2355.20
54796;DHT22;40693;43.884;20.340;2022-10-12T00:08:11;435.90;2355.20
54796;DHT22;40693;43.884;20.340;2022-10-12T00:10:42;435.90;2355.20
54796;DHT22;40693;43.884;20.340;2022-10-12T00:13:09;436.00;2355.20
54796;DHT22;40693;43.884;20.340;2022-10-12T00:15:37;435.90;2355.20
54796;DHT22;40693;43.884;20.340;2022-10-12T00:18:04;435.90;2355.20
54796;DHT22;40693;43.884;20.340;2022-10-12T00:20:29;435.90;2355.20
54796;DHT22;40693;43.884;20.340;2022-10-12T00:22:55;435.90;2355.20
54796;DHT22;40693;43.884;20.340;2022-10-12T00:25:21;435.90;2355.20
54796;DHT22;40693;43.884;20.340;2022-10-12T00:27:49;435.90;2355.20
54796;DHT22;40693;43.884;20.340;2022-10-12T00:30:15;435.90;2355.20
54796;DHT22;40693;43.884;20.340;2022-10-12T00:32:41;435.90;2355.20
54796;DHT22;40693;43.884;20.340;2022-10-12T00:35:07;436.00;2355.20
54796;DHT22;40693;43.884;20.340;2022-10-12T00:37:33;436.00;2355.20
54796;DHT22;40693;43.884;20.340;2022-10-12T00:39:59;436.00;2355.20
54796;DHT22;40693;43.884;20.340;2022-10-12T00:42:25;435.80;2355.20
54796;DHT22;40693;43.884;20.340;2022-10-12T00:44:51;435.90;2355.20
54796;DHT22;40693;43.884;20.340;2022-10-12T00:47:25;435.90;2355.20
54796;DHT22;40693;43.884;20.340;2022-10-12T00:50:17;435.90;2355.20
54796;DHT22;40693;43.884;20.340;2022-10-12T00:52:59;435.90;2355.20
54796;DHT22;40693;43.884;20.340;2022-10-12T00:55:39;435.90;2355.20
54796;DHT22;40693;43.884;20.340;2022-10-12T00:58:09;436.00;2355.20
54796;DHT22;40693;43.884;20.340;2022-10-12T01:00:36;436.00;2355.20
54796;DHT22;40693;43.884;20.340;2022-10-12T01:03:02;461.10;2380.80
54796;DHT22;40693;43.884;20.340;2022-10-12T01:05:28;436.00;2355.20
54796;DHT22;40693;43.884;20.340;2022-10-12T01:07:54;436.00;2355.20
54796;DHT22;40693;43.884;20.340;2022-10-12T01:10:20;435.90;2355.20
54796;DHT22;40693;43.884;20.340;2022-10-12T01:12:47;435.90;2355.20
54796;DHT22;40693;43.884;20.340;2022-10-12T01:15:14;435.90;2355.20
54796;DHT22;40693;43.884;20.340;2022-10-12T01:23:37;435.90;2355.20
54796;DHT22;40693;43.884;20.340;2022-10-12T01:32:14;435.80;2355.20
54796;DHT22;40693;43.884;20.340;2022-10-12T01:34:43;435.80;2355.20
54796;DHT22;40693;43.884;20.340;2022-10-12T01:37:45;435.80;2355.20
54796;DHT22;40693;43.884;20.340;2022-10-12T01:40:25;435.80;2355.20
54796;DHT22;40693;43.884;20.340;2022-10-12T01:42:53;435.80;2355.20
54796;DHT22;40693;43.884;20.340;2022-10-12T01:45:20;435.80;2355.20
54796;DHT22;40693;43.884;20.340;2022-10-12T01:47:48;435.80;2355.20
54796;DHT22;40693;43.884;20.340;2022-10-12T01:50:23;435.80;2355.20
54796;DHT22;40693;43.884;20.340;2022-10-12T01:53:08;435.80;2355.20
54796;DHT22;40693;43.884;20.340;2022-10-12T01:55:40;435.80;2355.20
54796;DHT22;40693;43.884;20.340;2022-10-12T02:04:27;435.80;2355.20
54796;DHT22;40693;43.884;20.340;2022-10-12T02:07:05;435.90;2355.20
54796;DHT22;40693;43.884;20.340;2022-10-12T02:09:34;435.90;2355.20
54796;DHT22;40693;43.884;20.340;2022-10-12T02:12:06;435.90;2355.20
54796;DHT22;40693;43.884;20.340;2022-10-12T02:14:42;435.90;2355.20
54796;DHT22;40693;43.884;20.340;2022-10-12T02:17:12;435.80;2355.20
54796;DHT22;40693;43.884;20.340;2022-10-12T02:19:43;435.80;2355.20
54796;DHT22;40693;43.884;20.340;2022-10-12T02:22:14;435.80;2355.20
54796;DHT22;40693;43.884;20.340;2022-10-12T02:24:43;435.80;2355.20
54796;DHT22;40693;43.884;20.340;2022-10-12T02:27:12;435.80;2355.20
54796;DHT22;40693;43.884;20.340;2022-10-12T02:29:44;435.80;2355.20
54796;DHT22;40693;43.884;20.340;2022-10-12T02:32:20;435.80;2355.20
54796;DHT22;40693;43.884;20.340;2022-10-12T02:35:15;435.80;2355.20
54796;DHT22;40693;43.884;20.340;2022-10-12T02:37:50;435.80;2355.20
54796;DHT22;40693;43.884;20.340;2022-10-12T02:42:54;435.80;2355.20
54796;DHT22;40693;43.884;20.340;2022-10-12T02:45:22;435.80;2355.20
54796;DHT22;40693;43.884;20.340;2022-10-12T02:47:50;435.80;2355.20
54796;DHT22;40693;43.884;20.340;2022-10-12T02:50:19;435.80;2355.20
54796;DHT22;40693;43.884;20.340;2022-10-12T02:52:48;435.80;2355.20
54796;DHT22;40693;43.884;20.340;2022-10-12T02:55:15;435.80;2355.20
54796;DHT22;40693;43.884;20.340;2022-10-12T02:57:41;435.80;2355.20
54796;DHT22;40693;43.884;20.340;2022-10-12T03:00:07;435.80;2355.20
54796;DHT22;40693;43.884;20.340;2022-10-12T03:02:33;435.80;2355.20
54796;DHT22;40693;43.884;20.340;2022-10-12T03:04:59;435.90;2355.20
54796;DHT22;40693;43.884;20.340;2022-10-12T03:07:25;435.80;2355.20
54796;DHT22;40693;43.884;20.340;2022-10-12T03:09:51;435.80;2355.20
54796;DHT22;40693;43.884;20.340;2022-10-12T03:12:16;435.80;2355.20
54796;DHT22;40693;43.884;20.340;2022-10-12T03:14:42;435.70;2355.20
54796;DHT22;40693;43.884;20.340;2022-10-12T03:17:08;435.70;2355.20
54796;DHT22;40693;43.884;20.340;2022-10-12T03:19:34;435.60;2355.20
54796;DHT22;40693;43.884;20.340;2022-10-12T03:22:00;435.60;2355.20
54796;DHT22;40693;43.884;20.340;2022-10-12T03:24:26;435.60;2355.20
54796;DHT22;40693;43.884;20.340;2022-10-12T03:26:52;435.60;2355.20
54796;DHT22;40693;43.884;20.340;2022-10-12T03:29:17;435.60;2355.20
54796;DHT22;40693;43.884;20.340;2022-10-12T03:31:43;435.50;2355.20
54796;DHT22;40693;43.884;20.340;2022-10-12T03:34:09;435.50;2355.20
54796;DHT22;40693;43.884;20.340;2022-10-12T03:36:35;435.40;2355.20
54796;DHT22;40693;43.884;20.340;2022-10-12T03:39:01;435.40;2355.20
54796;DHT22;40693;43.884;20.340;2022-10-12T03:41:26;435.40;2355.20
54796;DHT22;40693;43.884;20.340;2022-10-12T03:43:52;435.40;2355.20
54796;DHT22;40693;43.884;20.340;2022-10-12T03:46:21;435.40;2355.20
54796;DHT22;40693;43.884;20.340;2022-10-12T03:48:46;435.50;2355.20
54796;DHT22;40693;43.884;20.340;2022-10-12T03:51:12;435.60;2355.20
54796;DHT22;40693;43.884;20.340;2022-10-12T03:53:38;435.60;2355.20
54796;DHT22;40693;43.884;20.340;2022-10-12T03:56:04;435.60;2355.20
54796;DHT22;40693;43.884;20.340;2022-10-12T03:58:29;435.60;2355.20
54796;DHT22;40693;43.884;20.340;2022-10-12T04:00:55;435.60;2355.20
54796;DHT22;40693;43.884;20.340;2022-10-12T04:03:21;435.60;2355.20
54796;DHT22;40693;43.884;20.340;2022-10-12T04:05:54;435.60;2355.20
54796;DHT22;40693;43.884;20.340;2022-10-12T04:08:21;435.70;2355.20
54796;DHT22;40693;43.884;20.340;2022-10-12T04:10:47;435.70;2355.20
54796;DHT22;40693;43.884;20.340;2022-10-12T04:13:16;435.70;2355.20
54796;DHT22;40693;43.884;20.340;2022-10-12T04:15:41;435.60;2355.20
54796;DHT22;40693;43.884;20.340;2022-10-12T04:18:07;435.60;2355.20
54796;DHT22;40693;43.884;20.340;2022-10-12T04:20:33;435.60;2355.20
54796;DHT22;40693;43.884;20.340;2022-10-12T04:22:59;435.60;2355.20
54796;DHT22;40693;43.884;20.340;2022-10-12T04:25:25;435.60;2355.20
54796;DHT22;40693;43.884;20.340;2022-10-12T04:27:51;435.70;2355.20
54796;DHT22;40693;43.884;20.340;2022-10-12T04:30:16;435.70;2355.20
54796;DHT22;40693;43.884;20.340;2022-10-12T04:32:43;435.70;2355.20
54796;DHT22;40693;43.884;20.340;2022-10-12T04:35:09;435.70;2355.20
54796;DHT22;40693;43.884;20.340;2022-10-12T04:37:35;435.70;2355.20
54796;DHT22;40693;43.884;20.340;2022-10-12T04:40:01;435.70;2355.20
54796;DHT22;40693;43.884;20.340;2022-10-12T04:42:27;435.70;2355.20
54796;DHT22;40693;43.884;20.340;2022-10-12T04:44:56;435.80;2355.20
54796;DHT22;40693;43.884;20.340;2022-10-12T04:47:22;435.80;2355.20
54796;DHT22;40693;43.884;20.340;2022-10-12T04:49:48;435.70;2355.20
54796;DHT22;40693;43.884;20.340;2022-10-12T04:52:14;435.70;2355.20
54796;DHT22;40693;43.884;20.340;2022-10-12T04:54:40;435.60;2355.20
54796;DHT22;40693;43.884;20.340;2022-10-12T04:57:05;435.60;2355.20
54796;DHT22;40693;43.884;20.340;2022-10-12T04:59:31;435.60;2355.20
54796;DHT22;40693;43.884;20.340;2022-10-12T05:01:57;435.60;2355.20
54796;DHT22;40693;43.884;20.340;2022-10-12T05:04:23;435.60;2355.20
54796;DHT22;40693;43.884;20.340;2022-10-12T05:06:49;435.60;2355.20
54796;DHT22;40693;43.884;20.340;2022-10-12T05:09:15;435.50;2355.20
54796;DHT22;40693;43.884;20.340;2022-10-12T05:11:41;435.40;2355.20
54796;DHT22;40693;43.884;20.340;2022-10-12T05:14:08;435.30;2355.20
54796;DHT22;40693;43.884;20.340;2022-10-12T05:16:33;435.30;2355.20
54796;DHT22;40693;43.884;20.340;2022-10-12T05:18:59;435.30;2355.20
54796;DHT22;40693;43.884;20.340;2022-10-12T05:21:25;435.20;2355.20
54796;DHT22;40693;43.884;20.340;2022-10-12T05:23:52;435.30;2355.20
54796;DHT22;40693;43.884;20.340;2022-10-12T05:26:18;435.30;2355.20
54796;DHT22;40693;43.884;20.340;2022-10-12T05:28:44;435.20;2355.20
54796;DHT22;40693;43.884;20.340;2022-10-12T05:31:10;435.30;2355.20
54796;DHT22;40693;43.884;20.340;2022-10-12T05:33:36;435.30;2355.20
54796;DHT22;40693;43.884;20.340;2022-10-12T05:36:03;435.30;2355.20
54796;DHT22;40693;43.884;20.340;2022-10-12T05:38:29;435.30;2355.20
54796;DHT22;40693;43.884;20.340;2022-10-12T05:40:54;435.30;2355.20
54796;DHT22;40693;43.884;20.340;2022-10-12T05:43:20;435.40;2355.20
54796;DHT22;40693;43.884;20.340;2022-10-12T05:45:46;435.40;2355.20
54796;DHT22;40693;43.884;20.340;2022-10-12T05:48:12;435.40;2355.20
54796;DHT22;40693;43.884;20.340;2022-10-12T05:50:38;435.40;2355.20
54796;DHT22;40693;43.884;20.340;2022-10-12T05:53:04;435.40;2355.20
54796;DHT22;40693;43.884;20.340;2022-10-12T05:55:30;435.40;2355.20
54796;DHT22;40693;43.884;20.340;2022-10-12T05:57:56;435.60;2355.20
54796;DHT22;40693;43.884;20.340;2022-10-12T06:00:22;435.60;2355.20
54796;DHT22;40693;43.884;20.340;2022-10-12T06:02:48;435.60;2355.20
54796;DHT22;40693;43.884;20.340;2022-10-12T06:05:14;435.60;2355.20
54796;DHT22;40693;43.884;20.340;2022-10-12T06:07:40;435.70;2355.20
54796;DHT22;40693;43.884;20.340;2022-10-12T06:10:07;435.60;2355.20
54796;DHT22;40693;43.884;20.340;2022-10-12T06:12:33;435.60;2355.20
54796;DHT22;40693;43.884;20.340;2022-10-12T06:14:59;435.60;2355.20
54796;DHT22;40693;43.884;20.340;2022-10-12T06:17:25;435.60;2355.20
54796;DHT22;40693;43.884;20.340;2022-10-12T06:19:53;435.70;2355.20
54796;DHT22;40693;43.884;20.340;2022-10-12T06:22:22;435.70;2355.20
54796;DHT22;40693;43.884;20.340;2022-10-12T06:24:49;435.70;2355.20
54796;DHT22;40693;43.884;20.340;2022-10-12T06:27:15;435.80;2355.20
54796;DHT22;40693;43.884;20.340;2022-10-12T06:29:44;435.80;2355.20
54796;DHT22;40693;43.884;20.340;2022-10-12T06:32:10;435.80;2355.20
54796;DHT22;40693;43.884;20.340;2022-10-12T06:34:35;435.80;2355.20
54796;DHT22;40693;43.884;20.340;2022-10-12T06:37:01;435.80;2355.20
54796;DHT22;40693;43.884;20.340;2022-10-12T06:39:27;435.80;2355.20
54796;DHT22;40693;43.884;20.340;2022-10-12T06:41:54;435.80;2355.20
54796;DHT22;40693;43.884;20.340;2022-10-12T06:44:19;435.80;2355.20
54796;DHT22;40693;43.884;20.340;2022-10-12T06:46:47;435.90;2355.20
54796;DHT22;40693;43.884;20.340;2022-10-12T06:49:14;435.90;2355.20
54796;DHT22;40693;43.884;20.340;2022-10-12T06:51:40;435.90;2355.20
54796;DHT22;40693;43.884;20.340;2022-10-12T06:54:05;436.00;2355.20
54796;DHT22;40693;43.884;20.340;2022-10-12T06:56:31;436.00;2355.20
54796;DHT22;40693;43.884;20.340;2022-10-12T06:58:58;436.00;2355.20
54796;DHT22;40693;43.884;20.340;2022-10-12T07:01:24;436.00;2355.20
54796;DHT22;40693;43.884;20.340;2022-10-12T07:03:49;436.10;2355.20
54796;DHT22;40693;43.884;20.340;2022-10-12T07:06:15;436.10;2355.20
54796;DHT22;40693;43.884;20.340;2022-10-12T07:08:41;460.80;2380.80
54796;DHT22;40693;43.884;20.340;2022-10-12T07:11:09;460.80;2380.80
54796;DHT22;40693;43.884;20.340;2022-10-12T07:13:35;460.90;2380.80
54796;DHT22;40693;43.884;20.340;2022-10-12T07:16:02;460.90;2380.80
54796;DHT22;40693;43.884;20.340;2022-10-12T07:18:28;460.90;2380.80
54796;DHT22;40693;43.884;20.340;2022-10-12T07:20:57;460.90;2380.80
54796;DHT22;40693;43.884;20.340;2022-10-12T07:23:25;461.00;2380.80
54796;DHT22;40693;43.884;20.340;2022-10-12T07:25:52;461.00;2380.80
54796;DHT22;40693;43.884;20.340;2022-10-12T07:28:18;461.00;2380.80
54796;DHT22;40693;43.884;20.340;2022-10-12T07:30:44;461.00;2380.80
54796;DHT22;40693;43.884;20.340;2022-10-12T07:33:10;461.00;2380.80
54796;DHT22;40693;43.884;20.340;2022-10-12T07:35:36;461.00;2380.80
54796;DHT22;40693;43.884;20.340;2022-10-12T07:38:03;461.00;2380.80
54796;DHT22;40693;43.884;20.340;2022-10-12T07:40:29;461.00;2380.80
54796;DHT22;40693;43.884;20.340;2022-10-12T07:42:55;461.00;2380.80
54796;DHT22;40693;43.884;20.340;2022-10-12T07:45:21;461.00;2380.80
54796;DHT22;40693;43.884;20.340;2022-10-12T07:47:47;461.00;2380.80
54796;DHT22;40693;43.884;20.340;2022-10-12T07:50:13;461.00;2380.80
54796;DHT22;40693;43.884;20.340;2022-10-12T07:52:39;461.10;2380.80
54796;DHT22;40693;43.884;20.340;2022-10-12T07:55:06;461.00;2380.80
54796;DHT22;40693;43.884;20.340;2022-10-12T07:57:32;460.90;2380.80
54796;DHT22;40693;43.884;20.340;2022-10-12T07:59:58;436.00;2355.20
54796;DHT22;40693;43.884;20.340;2022-10-12T08:02:23;461.20;2380.80
54796;DHT22;40693;43.884;20.340;2022-10-12T08:04:53;461.20;2380.80
54796;DHT22;40693;43.884;20.340;2022-10-12T08:07:19;461.20;2380.80
54796;DHT22;40693;43.884;20.340;2022-10-12T08:09:47;461.20;2380.80
54796;DHT22;40693;43.884;20.340;2022-10-12T08:12:13;461.20;2380.80
54796;DHT22;40693;43.884;20.340;2022-10-12T08:14:38;461.20;2380.80
54796;DHT22;40693;43.884;20.340;2022-10-12T08:17:04;461.20;2380.80
54796;DHT22;40693;43.884;20.340;2022-10-12T08:19:31;461.30;2380.80
54796;DHT22;40693;43.884;20.340;2022-10-12T08:21:56;461.30;2380.80
54796;DHT22;40693;43.884;20.340;2022-10-12T08:24:22;461.30;2380.80
54796;DHT22;40693;43.884;20.340;2022-10-12T08:26:48;461.30;2380.80
54796;DHT22;40693;43.884;20.340;2022-10-12T08:29:14;461.40;2380.80
54796;DHT22;40693;43.884;20.340;2022-10-12T08:31:39;461.50;2380.80
54796;DHT22;40693;43.884;20.340;2022-10-12T08:34:05;461.50;2380.80
54796;DHT22;40693;43.884;20.340;2022-10-12T08:36:31;461.60;2380.80
54796;DHT22;40693;43.884;20.340;2022-10-12T08:38:57;461.60;2380.80
54796;DHT22;40693;43.884;20.340;2022-10-12T08:46:24;486.50;2380.80
54796;DHT22;40693;43.884;20.340;2022-10-12T08:51:26;486.50;2380.80
54796;DHT22;40693;43.884;20.340;2022-10-12T08:54:18;486.70;2380.80
54796;DHT22;40693;43.884;20.340;2022-10-12T08:56:44;486.80;2380.80
54796;DHT22;40693;43.884;20.340;2022-10-12T08:59:15;486.90;2380.80
54796;DHT22;40693;43.884;20.340;2022-10-12T09:07:23;487.20;2380.80
54796;DHT22;40693;43.884;20.340;2022-10-12T09:15:23;512.30;2380.80
54796;DHT22;40693;43.884;20.340;2022-10-12T09:18:05;512.40;2380.80
54796;DHT22;40693;43.884;20.340;2022-10-12T09:20:48;512.50;2380.80
54796;DHT22;40693;43.884;20.340;2022-10-12T09:23:33;512.70;2380.80
54796;DHT22;40693;43.884;20.340;2022-10-12T09:26:16;512.60;2380.80
54796;DHT22;40693;43.884;20.340;2022-10-12T09:28:45;512.90;2380.80
54796;DHT22;40693;43.884;20.340;2022-10-12T09:34:05;537.60;2406.40
54796;DHT22;40693;43.884;20.340;2022-10-12T09:36:34;537.70;2406.40
54796;DHT22;40693;43.884;20.340;2022-10-12T09:39:06;537.90;2406.40
54796;DHT22;40693;43.884;20.340;2022-10-12T09:41:41;538.10;2406.40
54796;DHT22;40693;43.884;20.340;2022-10-12T09:46:59;563.20;2432.00
54796;DHT22;40693;43.884;20.340;2022-10-12T09:49:43;563.40;2432.00
54796;DHT22;40693;43.884;20.340;2022-10-12T09:52:10;563.60;2432.00
54796;DHT22;40693;43.884;20.340;2022-10-12T09:54:48;563.90;2432.00
54796;DHT22;40693;43.884;20.340;2022-10-12T09:59:59;564.10;2432.00
54796;DHT22;40693;43.884;20.340;2022-10-12T10:02:26;588.90;2432.00
54796;DHT22;40693;43.884;20.340;2022-10-12T10:04:53;589.20;2432.00
54796;DHT22;40693;43.884;20.340;2022-10-12T10:09:48;589.10;2432.00
54796;DHT22;40693;43.884;20.340;2022-10-12T10:12:28;589.20;2432.00
54796;DHT22;40693;43.884;20.340;2022-10-12T10:14:55;589.40;2432.00
54796;DHT22;40693;43.884;20.340;2022-10-12T10:17:30;589.60;2432.00
54796;DHT22;40693;43.884;20.340;2022-10-12T10:20:01;614.40;2432.00
54796;DHT22;40693;43.884;20.340;2022-10-12T10:22:28;614.50;2432.00
54796;DHT22;40693;43.884;20.340;2022-10-12T10:24:56;614.50;2432.00
54796;DHT22;40693;43.884;20.340;2022-10-12T10:27:37;589.70;2432.00
54796;DHT22;40693;43.884;20.340;2022-10-12T10:32:42;614.40;2432.00
54796;DHT22;40693;43.884;20.340;2022-10-12T10:40:17;614.60;2432.00
54796;DHT22;40693;43.884;20.340;2022-10-12T10:42:49;614.80;2432.00
54796;DHT22;40693;43.884;20.340;2022-10-12T10:45:40;615.00;2432.00
54796;DHT22;40693;43.884;20.340;2022-10-12T10:48:08;615.20;2432.00
54796;DHT22;40693;43.884;20.340;2022-10-12T10:50:39;615.20;2380.80
54796;DHT22;40693;43.884;20.340;2022-10-12T10:53:16;615.20;2329.60
54796;DHT22;40693;43.884;20.340;2022-10-12T10:58:46;615.10;2329.60
54796;DHT22;40693;43.884;20.340;2022-10-12T11:04:19;615.30;2252.80
54796;DHT22;40693;43.884;20.340;2022-10-12T11:07:11;615.30;2278.40
54796;DHT22;40693;43.884;20.340;2022-10-12T11:09:43;615.30;2304.00
54796;DHT22;40693;43.884;20.340;2022-10-12T11:12:15;640.20;2355.20
54796;DHT22;40693;43.884;20.340;2022-10-12T11:14:47;640.20;2278.40
54796;DHT22;40693;43.884;20.340;2022-10-12T11:17:31;640.20;2252.80
54796;DHT22;40693;43.884;20.340;2022-10-12T11:23:04;640.60;2329.60
54796;DHT22;40693;43.884;20.340;2022-10-12T11:26:04;640.70;2329.60
54796;DHT22;40693;43.884;20.340;2022-10-12T11:28:32;640.70;2304.00
54796;DHT22;40693;43.884;20.340;2022-10-12T11:30:59;640.70;2252.80
54796;DHT22;40693;43.884;20.340;2022-10-12T11:33:34;640.70;2227.20
54796;DHT22;40693;43.884;20.340;2022-10-12T11:36:06;640.70;2227.20
54796;DHT22;40693;43.884;20.340;2022-10-12T11:41:08;640.70;2201.60
54796;DHT22;40693;43.884;20.340;2022-10-12T11:44:00;640.70;2201.60
54796;DHT22;40693;43.884;20.340;2022-10-12T11:46:35;640.60;2201.60
54796;DHT22;40693;43.884;20.340;2022-10-12T11:51:39;640.50;2150.40
54796;DHT22;40693;43.884;20.340;2022-10-12T11:54:36;640.30;2176.00
54796;DHT22;40693;43.884;20.340;2022-10-12T11:57:13;640.30;2150.40
54796;DHT22;40693;43.884;20.340;2022-10-12T12:00:04;615.30;2176.00
54796;DHT22;40693;43.884;20.340;2022-10-12T12:02:37;615.30;2227.20
54796;DHT22;40693;43.884;20.340;2022-10-12T12:05:04;615.00;2227.20
54796;DHT22;40693;43.884;20.340;2022-10-12T12:07:45;615.00;2252.80
54796;DHT22;40693;43.884;20.340;2022-10-12T12:23:25;640.10;2150.40
54796;DHT22;40693;43.884;20.340;2022-10-12T12:26:14;640.20;2227.20
54796;DHT22;40693;43.884;20.340;2022-10-12T12:28:42;640.30;2176.00
54796;DHT22;40693;43.884;20.340;2022-10-12T12:33:49;640.20;2176.00
54796;DHT22;40693;43.884;20.340;2022-10-12T12:36:39;640.40;2073.60
54796;DHT22;40693;43.884;20.340;2022-10-12T12:39:21;640.50;2073.60
54796;DHT22;40693;43.884;20.340;2022-10-12T12:41:54;640.60;2073.60
54796;DHT22;40693;43.884;20.340;2022-10-12T12:55:30;665.60;2022.40
54796;DHT22;40693;43.884;20.340;2022-10-12T13:08:52;665.70;2048.00
54796;DHT22;40693;43.884;20.340;2022-10-12T13:19:23;665.60;2048.00
54796;DHT22;40693;43.884;20.340;2022-10-12T13:21:51;640.80;2048.00
54796;DHT22;40693;43.884;20.340;2022-10-12T13:24:31;640.70;2073.60
54796;DHT22;40693;43.884;20.340;2022-10-12T13:27:23;640.70;2048.00
54796;DHT22;40693;43.884;20.340;2022-10-12T13:32:50;640.60;2048.00
54796;DHT22;40693;43.884;20.340;2022-10-12T13:40:47;640.60;2048.00
54796;DHT22;40693;43.884;20.340;2022-10-12T13:43:26;640.60;2048.00
54796;DHT22;40693;43.884;20.340;2022-10-12T13:45:53;640.90;2048.00
54796;DHT22;40693;43.884;20.340;2022-10-12T13:48:21;640.60;2048.00
54796;DHT22;40693;43.884;20.340;2022-10-12T13:50:58;640.50;2099.20
54796;DHT22;40693;43.884;20.340;2022-10-12T13:53:32;640.30;2073.60
54796;DHT22;40693;43.884;20.340;2022-10-12T13:56:08;640.40;2124.80
54796;DHT22;40693;43.884;20.340;2022-10-12T13:58:36;640.30;2124.80
54796;DHT22;40693;43.884;20.340;2022-10-12T14:01:02;640.20;2150.40
54796;DHT22;40693;43.884;20.340;2022-10-12T14:03:40;640.20;2150.40
54796;DHT22;40693;43.884;20.340;2022-10-12T14:06:26;615.30;2124.80
54796;DHT22;40693;43.884;20.340;2022-10-12T14:08:58;615.10;2176.00
54796;DHT22;40693;43.884;20.340;2022-10-12T14:11:26;615.10;2150.40
54796;DHT22;40693;43.884;20.340;2022-10-12T14:13:53;640.00;2150.40
54796;DHT22;40693;43.884;20.340;2022-10-12T14:16:19;615.00;2150.40
54796;DHT22;40693;43.884;20.340;2022-10-12T14:18:45;615.00;2201.60
54796;DHT22;40693;43.884;20.340;2022-10-12T14:21:21;615.00;2201.60
54796;DHT22;40693;43.884;20.340;2022-10-12T14:26:26;614.80;2227.20
54796;DHT22;40693;43.884;20.340;2022-10-12T14:28:53;614.70;2227.20
54796;DHT22;40693;43.884;20.340;2022-10-12T14:31:49;614.70;2227.20
54796;DHT22;40693;43.884;20.340;2022-10-12T14:37:21;614.50;2252.80
54796;DHT22;40693;43.884;20.340;2022-10-12T14:39:49;614.40;2304.00
54796;DHT22;40693;43.884;20.340;2022-10-12T14:42:32;589.60;2304.00
54796;DHT22;40693;43.884;20.340;2022-10-12T14:44:59;589.60;2304.00
54796;DHT22;40693;43.884;20.340;2022-10-12T14:47:31;589.60;2355.20
54796;DHT22;40693;43.884;20.340;2022-10-12T14:49:58;589.60;2329.60
54796;DHT22;40693;43.884;20.340;2022-10-12T14:54:58;589.50;2406.40
54796;DHT22;40693;43.884;20.340;2022-10-12T14:57:27;589.50;2380.80
54796;DHT22;40693;43.884;20.340;2022-10-12T14:59:54;589.40;2406.40
54796;DHT22;40693;43.884;20.340;2022-10-12T15:02:41;589.40;2432.00
54796;DHT22;40693;43.884;20.340;2022-10-12T15:05:10;589.40;2432.00
54796;DHT22;40693;43.884;20.340;2022-10-12T15:07:36;589.30;2432.00
54796;DHT22;40693;43.884;20.340;2022-10-12T15:10:03;589.30;2406.40
54796;DHT22;40693;43.884;20.340;2022-10-12T15:12:29;589.30;2432.00
54796;DHT22;40693;43.884;20.340;2022-10-12T15:14:56;589.20;2432.00
54796;DHT22;40693;43.884;20.340;2022-10-12T15:17:23;589.20;2432.00
54796;DHT22;40693;43.884;20.340;2022-10-12T15:19:49;589.10;2432.00
54796;DHT22;40693;43.884;20.340;2022-10-12T15:22:27;589.00;2432.00
54796;DHT22;40693;43.884;20.340;2022-10-12T15:24:54;563.60;2432.00
54796;DHT22;40693;43.884;20.340;2022-10-12T15:27:20;588.90;2432.00
54796;DHT22;40693;43.884;20.340;2022-10-12T15:29:46;588.90;2432.00
54796;DHT22;40693;43.884;20.340;2022-10-12T15:32:15;588.90;2432.00
54796;DHT22;40693;43.884;20.340;2022-10-12T15:34:42;588.80;2432.00
54796;DHT22;40693;43.884;20.340;2022-10-12T15:37:08;564.10;2432.00
54796;DHT22;40693;43.884;20.340;2022-10-12T15:39:33;564.10;2432.00
54796;DHT22;40693;43.884;20.340;2022-10-12T15:41:59;564.10;2432.00
54796;DHT22;40693;43.884;20.340;2022-10-12T15:44:26;564.10;2432.00
54796;DHT22;40693;43.884;20.340;2022-10-12T15:46:52;564.10;2432.00
54796;DHT22;40693;43.884;20.340;2022-10-12T15:49:20;564.00;2432.00
54796;DHT22;40693;43.884;20.340;2022-10-12T15:51:51;564.00;2432.00
54796;DHT22;40693;43.884;20.340;2022-10-12T15:54:17;563.90;2432.00
54796;DHT22;40693;43.884;20.340;2022-10-12T15:56:42;563.80;2432.00
54796;DHT22;40693;43.884;20.340;2022-10-12T15:59:08;563.80;2432.00
54796;DHT22;40693;43.884;20.340;2022-10-12T16:01:35;563.70;2432.00
54796;DHT22;40693;43.884;20.340;2022-10-12T16:04:03;563.70;2432.00
54796;DHT22;40693;43.884;20.340;2022-10-12T16:06:29;563.70;2432.00
54796;DHT22;40693;43.884;20.340;2022-10-12T16:08:55;563.60;2432.00
54796;DHT22;40693;43.884;20.340;2022-10-12T16:11:20;563.50;2432.00
54796;DHT22;40693;43.884;20.340;2022-10-12T16:13:47;563.40;2432.00
54796;DHT22;40693;43.884;20.340;2022-10-12T16:16:17;563.20;2432.00
54796;DHT22;40693;43.884;20.340;2022-10-12T16:18:43;538.50;2406.40
54796;DHT22;40693;43.884;20.340;2022-10-12T16:21:10;538.50;2406.40
54796;DHT22;40693;43.884;20.340;2022-10-12T16:23:37;538.50;2406.40
54796;DHT22;40693;43.884;20.340;2022-10-12T16:26:11;538.50;2406.40
54796;DHT22;40693;43.884;20.340;2022-10-12T16:28:38;538.40;2406.40
54796;DHT22;40693;43.884;20.340;2022-10-12T16:31:12;538.40;2406.40
54796;DHT22;40693;43.884;20.340;2022-10-12T16:33:39;538.40;2406.40
54796;DHT22;40693;43.884;20.340;2022-10-12T16:36:10;538.40;2406.40
54796;DHT22;40693;43.884;20.340;2022-10-12T16:38:37;538.40;2406.40
54796;DHT22;40693;43.884;20.340;2022-10-12T16:41:10;538.30;2406.40
54796;DHT22;40693;43.884;20.340;2022-10-12T16:43:37;538.30;2406.40
54796;DHT22;40693;43.884;20.340;2022-10-12T16:46:03;538.30;2406.40
54796;DHT22;40693;43.884;20.340;2022-10-12T16:48:30;538.00;2406.40
54796;DHT22;40693;43.884;20.340;2022-10-12T16:50:55;538.20;2406.40
54796;DHT22;40693;43.884;20.340;2022-10-12T16:53:21;538.10;2406.40
54796;DHT22;40693;43.884;20.340;2022-10-12T16:55:47;538.10;2406.40
54796;DHT22;40693;43.884;20.340;2022-10-12T16:58:13;538.00;2406.40
54796;DHT22;40693;43.884;20.340;2022-10-12T17:00:39;538.00;2406.40
54796;DHT22;40693;43.884;20.340;2022-10-12T17:03:06;538.00;2406.40